sensor_id;sensor_type;location;lat;lon;timestamp;temperature;humidity
57444;DHT22;43289;52.962;6.196;2023-05-10T00:01:24;13.00;99.90
57444;DHT22;43289;52.962;6.196;2023-05-10T00:03:55;13.10;99.90
57444;DHT22;43289;52.962;6.196;2023-05-10T00:38:11;13.00;99.90
57444;DHT22;43289;52.962;6.196;2023-05-10T00:40:37;12.90;99.90
57444;DHT22;43289;52.962;6.196;2023-05-10T00:43:03;12.90;99.90
57444;DHT22;43289;52.962;6.196;2023-05-10T08:07:14;12.90;99.90
57444;DHT22;43289;52.962;6.196;2023-05-10T08:09:40;13.50;99.90
57444;DHT22;43289;52.962;6.196;2023-05-10T08:12:05;13.60;99.90
57444;DHT22;43289;52.962;6.196;2023-05-10T08:14:31;13.60;99.90
57444;DHT22;43289;52.962;6.196;2023-05-10T08:16:57;13.50;99.90
57444;DHT22;43289;52.962;6.196;2023-05-10T08:19:22;13.50;99.90
57444;DHT22;43289;52.962;6.196;2023-05-10T08:21:49;13.50;99.90
57444;DHT22;43289;52.962;6.196;2023-05-10T08:24:14;13.50;99.90
57444;DHT22;43289;52.962;6.196;2023-05-10T08:26:40;13.50;99.90
57444;DHT22;43289;52.962;6.196;2023-05-10T08:29:05;13.50;99.90
57444;DHT22;43289;52.962;6.196;2023-05-10T08:31:34;13.50;99.90
57444;DHT22;43289;52.962;6.196;2023-05-10T08:34:00;13.50;99.90
57444;DHT22;43289;52.962;6.196;2023-05-10T08:36:25;13.60;99.90
57444;DHT22;43289;52.962;6.196;2023-05-10T08:38:51;13.70;99.90
57444;DHT22;43289;52.962;6.196;2023-05-10T08:41:19;13.70;99.90
57444;DHT22;43289;52.962;6.196;2023-05-10T08:43:46;13.80;99.90
57444;DHT22;43289;52.962;6.196;2023-05-10T08:46:16;13.80;99.90
57444;DHT22;43289;52.962;6.196;2023-05-10T08:48:44;13.70;99.90
57444;DHT22;43289;52.962;6.196;2023-05-10T08:51:19;13.70;99.90
57444;DHT22;43289;52.962;6.196;2023-05-10T08:53:45;13.70;99.90
57444;DHT22;43289;52.962;6.196;2023-05-10T09:01:04;13.80;99.90
57444;DHT22;43289;52.962;6.196;2023-05-10T09:03:31;14.10;99.90
57444;DHT22;43289;52.962;6.196;2023-05-10T09:05:57;14.20;99.90
57444;DHT22;43289;52.962;6.196;2023-05-10T09:08:26;14.20;99.90
57444;DHT22;43289;52.962;6.196;2023-05-10T09:10:52;14.40;99.90
57444;DHT22;43289;52.962;6.196;2023-05-10T09:13:19;14.40;99.90
57444;DHT22;43289;52.962;6.196;2023-05-10T09:15:45;14.60;99.90
57444;DHT22;43289;52.962;6.196;2023-05-10T09:18:11;14.80;99.90
57444;DHT22;43289;52.962;6.196;2023-05-10T09:20:37;15.00;99.90
57444;DHT22;43289;52.962;6.196;2023-05-10T09:23:02;14.90;99.90
57444;DHT22;43289;52.962;6.196;2023-05-10T09:25:28;15.00;99.90
57444;DHT22;43289;52.962;6.196;2023-05-10T09:27:54;15.10;99.90
57444;DHT22;43289;52.962;6.196;2023-05-10T09:30:30;15.20;99.90
57444;DHT22;43289;52.962;6.196;2023-05-10T09:32:58;15.20;99.90
57444;DHT22;43289;52.962;6.196;2023-05-10T09:35:26;15.20;99.90
57444;DHT22;43289;52.962;6.196;2023-05-10T09:37:56;15.20;99.90
57444;DHT22;43289;52.962;6.196;2023-05-10T09:40:23;15.20;99.90
57444;DHT22;43289;52.962;6.196;2023-05-10T09:43:03;15.30;99.90
57444;DHT22;43289;52.962;6.196;2023-05-10T09:47:59;15.20;99.90
57444;DHT22;43289;52.962;6.196;2023-05-10T09:50:26;15.50;99.90
57444;DHT22;43289;52.962;6.196;2023-05-10T09:53:00;15.60;99.90
57444;DHT22;43289;52.962;6.196;2023-05-10T09:58:05;15.60;99.90
57444;DHT22;43289;52.962;6.196;2023-05-10T10:00:36;15.70;99.90
57444;DHT22;43289;52.962;6.196;2023-05-10T10:17:45;15.40;99.90
57444;DHT22;43289;52.962;6.196;2023-05-10T10:35:08;15.50;99.90
57444;DHT22;43289;52.962;6.196;2023-05-10T11:48:01;15.90;99.90
57444;DHT22;43289;52.962;6.196;2023-05-10T11:50:28;15.30;99.90
57444;DHT22;43289;52.962;6.196;2023-05-10T11:52:55;15.10;99.90
57444;DHT22;43289;52.962;6.196;2023-05-10T13:16:39;15.10;99.90
57444;DHT22;43289;52.962;6.196;2023-05-10T13:19:05;16.50;99.90
57444;DHT22;43289;52.962;6.196;2023-05-10T13:21:31;16.50;99.90
57444;DHT22;43289;52.962;6.196;2023-05-10T13:23:56;16.60;99.90
57444;DHT22;43289;52.962;6.196;2023-05-10T13:26:22;16.70;99.90
57444;DHT22;43289;52.962;6.196;2023-05-10T13:28:47;16.70;99.90
57444;DHT22;43289;52.962;6.196;2023-05-10T13:36:06;16.70;99.90
57444;DHT22;43289;52.962;6.196;2023-05-10T13:38:32;16.90;99.90
57444;DHT22;43289;52.962;6.196;2023-05-10T13:40:57;16.80;99.90
57444;DHT22;43289;52.962;6.196;2023-05-10T13:43:23;16.80;99.90
57444;DHT22;43289;52.962;6.196;2023-05-10T13:45:49;16.60;99.90
57444;DHT22;43289;52.962;6.196;2023-05-10T13:48:14;16.60;99.90
57444;DHT22;43289;52.962;6.196;2023-05-10T13:50:40;16.70;99.90
57444;DHT22;43289;52.962;6.196;2023-05-10T13:53:06;16.80;99.90
57444;DHT22;43289;52.962;6.196;2023-05-10T13:55:32;16.80;99.90
57444;DHT22;43289;52.962;6.196;2023-05-10T13:58:14;16.70;99.90
57444;DHT22;43289;52.962;6.196;2023-05-10T14:00:42;16.70;99.90
57444;DHT22;43289;52.962;6.196;2023-05-10T14:03:07;16.60;99.90
57444;DHT22;43289;52.962;6.196;2023-05-10T14:05:34;16.60;99.90
57444;DHT22;43289;52.962;6.196;2023-05-10T14:08:00;16.50;99.90
57444;DHT22;43289;52.962;6.196;2023-05-10T14:10:25;16.50;99.90
57444;DHT22;43289;52.962;6.196;2023-05-10T14:12:51;16.30;99.90
57444;DHT22;43289;52.962;6.196;2023-05-10T14:15:17;16.30;99.90
57444;DHT22;43289;52.962;6.196;2023-05-10T14:17:42;16.20;99.90
57444;DHT22;43289;52.962;6.196;2023-05-10T14:20:08;16.10;99.90
57444;DHT22;43289;52.962;6.196;2023-05-10T14:22:34;16.20;99.90
57444;DHT22;43289;52.962;6.196;2023-05-10T14:25:00;16.20;99.90
57444;DHT22;43289;52.962;6.196;2023-05-10T14:27:27;16.30;99.90
57444;DHT22;43289;52.962;6.196;2023-05-10T14:29:52;16.30;99.90
57444;DHT22;43289;52.962;6.196;2023-05-10T14:32:18;16.30;99.90
57444;DHT22;43289;52.962;6.196;2023-05-10T14:34:44;16.20;99.90
57444;DHT22;43289;52.962;6.196;2023-05-10T14:37:10;16.30;99.90
57444;DHT22;43289;52.962;6.196;2023-05-10T14:39:37;16.40;99.90
57444;DHT22;43289;52.962;6.196;2023-05-10T14:42:11;16.50;99.90
57444;DHT22;43289;52.962;6.196;2023-05-10T14:44:37;16.60;99.90
57444;DHT22;43289;52.962;6.196;2023-05-10T14:47:03;16.70;99.90
57444;DHT22;43289;52.962;6.196;2023-05-10T15:06:34;16.80;99.90
57444;DHT22;43289;52.962;6.196;2023-05-10T15:09:01;16.90;99.90
57444;DHT22;43289;52.962;6.196;2023-05-10T15:28:39;16.90;99.90
57444;DHT22;43289;52.962;6.196;2023-05-10T15:31:05;16.90;99.90
57444;DHT22;43289;52.962;6.196;2023-05-10T15:33:30;16.80;99.90
57444;DHT22;43289;52.962;6.196;2023-05-10T15:35:56;16.70;99.90
57444;DHT22;43289;52.962;6.196;2023-05-10T15:38:24;16.70;99.90
57444;DHT22;43289;52.962;6.196;2023-05-10T15:40:49;16.70;99.90
57444;DHT22;43289;52.962;6.196;2023-05-10T15:43:15;16.60;99.90
57444;DHT22;43289;52.962;6.196;2023-05-10T15:45:41;16.60;99.90
57444;DHT22;43289;52.962;6.196;2023-05-10T15:48:07;16.60;99.90
57444;DHT22;43289;52.962;6.196;2023-05-10T15:50:32;16.50;99.90
57444;DHT22;43289;52.962;6.196;2023-05-10T15:52:58;16.50;99.90
57444;DHT22;43289;52.962;6.196;2023-05-10T19:03:30;16.40;99.90
57444;DHT22;43289;52.962;6.196;2023-05-10T19:18:07;14.60;99.90
57444;DHT22;43289;52.962;6.196;2023-05-10T19:20:32;14.30;99.90
57444;DHT22;43289;52.962;6.196;2023-05-10T19:22:58;14.10;99.90
57444;DHT22;43289;52.962;6.196;2023-05-10T19:25:24;14.10;99.90
57444;DHT22;43289;52.962;6.196;2023-05-10T19:27:57;14.00;99.90
57444;DHT22;43289;52.962;6.196;2023-05-10T19:30:23;13.90;99.90
57444;DHT22;43289;52.962;6.196;2023-05-10T19:32:49;13.80;99.90
57444;DHT22;43289;52.962;6.196;2023-05-10T19:35:15;13.70;99.90
57444;DHT22;43289;52.962;6.196;2023-05-10T19:37:42;13.60;99.90
